sensor_id;sensor_type;location;lat;lon;timestamp;temperature;humidity
77700;DHT22;66867;42.658;23.320;2023-03-12T00:00:00;6.4;59
77700;DHT22;66867;42.658;23.320;2023-03-12T00:01:00;6.3;58
77700;DHT22;66867;42.658;23.320;2023-03-12T00:02:00;6.4;58
77700;DHT22;66867;42.658;23.320;2023-03-12T00:03:00;6.3;58
77700;DHT22;66867;42.658;23.320;2023-03-12T00:04:00;6.2;58
77700;DHT22;66867;42.658;23.320;2023-03-12T00:05:00;6.2;58
77700;DHT22;66867;42.658;23.320;2023-03-12T00:06:01;6.1;59
77700;DHT22;66867;42.658;23.320;2023-03-12T00:07:00;6.1;58
77700;DHT22;66867;42.658;23.320;2023-03-12T00:08:00;6.1;59
77700;DHT22;66867;42.658;23.320;2023-03-12T00:09:00;6.0;59
77700;DHT22;66867;42.658;23.320;2023-03-12T00:10:00;6.0;59
77700;DHT22;66867;42.658;23.320;2023-03-12T00:11:04;6.0;60
77700;DHT22;66867;42.658;23.320;2023-03-12T00:12:00;5.9;60
77700;DHT22;66867;42.658;23.320;2023-03-12T00:13:00;5.9;60
77700;DHT22;66867;42.658;23.320;2023-03-12T00:14:00;5.9;60
77700;DHT22;66867;42.658;23.320;2023-03-12T00:15:00;6.0;60
77700;DHT22;66867;42.658;23.320;2023-03-12T00:16:04;6.0;60
77700;DHT22;66867;42.658;23.320;2023-03-12T00:17:00;6.0;60
77700;DHT22;66867;42.658;23.320;2023-03-12T00:18:00;6.1;60
77700;DHT22;66867;42.658;23.320;2023-03-12T00:19:00;6.2;60
77700;DHT22;66867;42.658;23.320;2023-03-12T00:20:00;6.2;60
77700;DHT22;66867;42.658;23.320;2023-03-12T00:21:00;6.0;59
77700;DHT22;66867;42.658;23.320;2023-03-12T00:22:00;6.1;60
77700;DHT22;66867;42.658;23.320;2023-03-12T00:23:00;6.1;59
77700;DHT22;66867;42.658;23.320;2023-03-12T00:24:00;6.1;59
77700;DHT22;66867;42.658;23.320;2023-03-12T00:25:00;6.0;60
77700;DHT22;66867;42.658;23.320;2023-03-12T00:26:00;6.0;59
77700;DHT22;66867;42.658;23.320;2023-03-12T00:27:00;5.9;60
77700;DHT22;66867;42.658;23.320;2023-03-12T00:28:00;6.0;60
77700;DHT22;66867;42.658;23.320;2023-03-12T00:29:00;6.0;60
77700;DHT22;66867;42.658;23.320;2023-03-12T00:30:00;6.0;60
77700;DHT22;66867;42.658;23.320;2023-03-12T00:31:00;6.0;60
77700;DHT22;66867;42.658;23.320;2023-03-12T00:32:00;6.0;60
77700;DHT22;66867;42.658;23.320;2023-03-12T00:33:00;5.9;60
77700;DHT22;66867;42.658;23.320;2023-03-12T00:34:00;6.0;59
77700;DHT22;66867;42.658;23.320;2023-03-12T00:35:00;6.0;60
77700;DHT22;66867;42.658;23.320;2023-03-12T00:36:00;6.0;59
77700;DHT22;66867;42.658;23.320;2023-03-12T00:37:00;6.1;59
77700;DHT22;66867;42.658;23.320;2023-03-12T00:38:00;6.1;59
77700;DHT22;66867;42.658;23.320;2023-03-12T00:39:00;6.2;59
77700;DHT22;66867;42.658;23.320;2023-03-12T00:40:00;6.1;59
77700;DHT22;66867;42.658;23.320;2023-03-12T00:41:00;6.2;59
77700;DHT22;66867;42.658;23.320;2023-03-12T00:42:00;6.2;59
77700;DHT22;66867;42.658;23.320;2023-03-12T00:43:00;6.1;59
77700;DHT22;66867;42.658;23.320;2023-03-12T00:44:00;6.0;59
77700;DHT22;66867;42.658;23.320;2023-03-12T00:45:00;6.1;59
77700;DHT22;66867;42.658;23.320;2023-03-12T00:46:00;6.1;59
77700;DHT22;66867;42.658;23.320;2023-03-12T00:47:00;6.1;59
77700;DHT22;66867;42.658;23.320;2023-03-12T00:48:00;6.2;59
77700;DHT22;66867;42.658;23.320;2023-03-12T00:49:00;6.1;59
77700;DHT22;66867;42.658;23.320;2023-03-12T00:50:00;6.2;59
77700;DHT22;66867;42.658;23.320;2023-03-12T00:51:00;6.2;58
77700;DHT22;66867;42.658;23.320;2023-03-12T00:52:00;6.1;59
77700;DHT22;66867;42.658;23.320;2023-03-12T00:53:00;6.1;59
77700;DHT22;66867;42.658;23.320;2023-03-12T00:54:00;6.1;59
77700;DHT22;66867;42.658;23.320;2023-03-12T00:55:00;6.1;59
77700;DHT22;66867;42.658;23.320;2023-03-12T00:56:00;6.1;59
77700;DHT22;66867;42.658;23.320;2023-03-12T00:57:00;6.1;59
77700;DHT22;66867;42.658;23.320;2023-03-12T00:58:00;6.0;59
77700;DHT22;66867;42.658;23.320;2023-03-12T00:59:00;6.0;59
77700;DHT22;66867;42.658;23.320;2023-03-12T01:00:00;6.0;59
77700;DHT22;66867;42.658;23.320;2023-03-12T01:01:00;5.9;60
77700;DHT22;66867;42.658;23.320;2023-03-12T01:02:00;6.0;60
77700;DHT22;66867;42.658;23.320;2023-03-12T01:03:00;5.9;60
77700;DHT22;66867;42.658;23.320;2023-03-12T01:04:00;5.8;60
77700;DHT22;66867;42.658;23.320;2023-03-12T01:05:00;5.7;60
77700;DHT22;66867;42.658;23.320;2023-03-12T01:06:00;5.7;60
77700;DHT22;66867;42.658;23.320;2023-03-12T01:07:00;5.7;60
77700;DHT22;66867;42.658;23.320;2023-03-12T01:08:00;5.7;60
77700;DHT22;66867;42.658;23.320;2023-03-12T01:09:00;5.7;60
77700;DHT22;66867;42.658;23.320;2023-03-12T01:10:00;5.7;60
77700;DHT22;66867;42.658;23.320;2023-03-12T01:11:00;5.8;60
77700;DHT22;66867;42.658;23.320;2023-03-12T01:12:00;5.7;60
77700;DHT22;66867;42.658;23.320;2023-03-12T01:13:00;5.6;61
77700;DHT22;66867;42.658;23.320;2023-03-12T01:14:00;5.7;61
77700;DHT22;66867;42.658;23.320;2023-03-12T01:15:00;5.6;60
77700;DHT22;66867;42.658;23.320;2023-03-12T01:16:00;5.5;61
77700;DHT22;66867;42.658;23.320;2023-03-12T01:17:00;5.4;61
77700;DHT22;66867;42.658;23.320;2023-03-12T01:18:00;5.3;62
77700;DHT22;66867;42.658;23.320;2023-03-12T01:19:00;5.3;62
77700;DHT22;66867;42.658;23.320;2023-03-12T01:20:00;5.3;62
77700;DHT22;66867;42.658;23.320;2023-03-12T01:21:00;5.3;62
77700;DHT22;66867;42.658;23.320;2023-03-12T01:22:00;5.4;62
77700;DHT22;66867;42.658;23.320;2023-03-12T01:23:00;5.4;62
77700;DHT22;66867;42.658;23.320;2023-03-12T01:24:00;5.5;62
77700;DHT22;66867;42.658;23.320;2023-03-12T01:25:00;5.4;62
77700;DHT22;66867;42.658;23.320;2023-03-12T01:26:00;5.5;62
77700;DHT22;66867;42.658;23.320;2023-03-12T01:27:00;5.5;62
77700;DHT22;66867;42.658;23.320;2023-03-12T01:28:00;5.6;62
77700;DHT22;66867;42.658;23.320;2023-03-12T01:29:00;5.6;62
77700;DHT22;66867;42.658;23.320;2023-03-12T01:30:00;5.6;62
77700;DHT22;66867;42.658;23.320;2023-03-12T01:31:05;5.6;62
77700;DHT22;66867;42.658;23.320;2023-03-12T01:32:00;5.7;62
77700;DHT22;66867;42.658;23.320;2023-03-12T01:33:00;5.6;62
77700;DHT22;66867;42.658;23.320;2023-03-12T01:34:00;5.6;62
77700;DHT22;66867;42.658;23.320;2023-03-12T01:35:00;5.5;62
77700;DHT22;66867;42.658;23.320;2023-03-12T01:36:00;5.5;62
77700;DHT22;66867;42.658;23.320;2023-03-12T01:37:00;5.5;62
77700;DHT22;66867;42.658;23.320;2023-03-12T01:38:00;5.5;62
77700;DHT22;66867;42.658;23.320;2023-03-12T01:39:00;5.6;62
77700;DHT22;66867;42.658;23.320;2023-03-12T01:40:00;5.5;62
77700;DHT22;66867;42.658;23.320;2023-03-12T01:41:00;5.5;62
77700;DHT22;66867;42.658;23.320;2023-03-12T01:42:00;5.6;62
77700;DHT22;66867;42.658;23.320;2023-03-12T01:43:14;5.5;62
77700;DHT22;66867;42.658;23.320;2023-03-12T01:44:00;5.5;63
77700;DHT22;66867;42.658;23.320;2023-03-12T01:45:00;5.5;62
77700;DHT22;66867;42.658;23.320;2023-03-12T01:47:00;5.5;62
77700;DHT22;66867;42.658;23.320;2023-03-12T01:48:00;5.6;62
77700;DHT22;66867;42.658;23.320;2023-03-12T01:49:02;5.6;62
77700;DHT22;66867;42.658;23.320;2023-03-12T01:50:00;5.5;62
77700;DHT22;66867;42.658;23.320;2023-03-12T01:51:00;5.5;62
77700;DHT22;66867;42.658;23.320;2023-03-12T01:52:16;5.5;63
77700;DHT22;66867;42.658;23.320;2023-03-12T01:53:00;5.6;62
77700;DHT22;66867;42.658;23.320;2023-03-12T01:54:01;5.5;62
77700;DHT22;66867;42.658;23.320;2023-03-12T01:55:08;5.6;62
77700;DHT22;66867;42.658;23.320;2023-03-12T01:56:00;5.6;62
77700;DHT22;66867;42.658;23.320;2023-03-12T01:57:00;5.7;62
77700;DHT22;66867;42.658;23.320;2023-03-12T01:58:00;5.7;61
77700;DHT22;66867;42.658;23.320;2023-03-12T01:59:02;5.8;61
77700;DHT22;66867;42.658;23.320;2023-03-12T02:00:04;5.8;61
77700;DHT22;66867;42.658;23.320;2023-03-12T02:01:00;5.8;61
77700;DHT22;66867;42.658;23.320;2023-03-12T02:02:00;5.8;61
77700;DHT22;66867;42.658;23.320;2023-03-12T02:03:01;5.8;61
77700;DHT22;66867;42.658;23.320;2023-03-12T02:04:00;5.8;60
77700;DHT22;66867;42.658;23.320;2023-03-12T02:06:09;5.8;60
77700;DHT22;66867;42.658;23.320;2023-03-12T02:07:03;5.8;60
77700;DHT22;66867;42.658;23.320;2023-03-12T02:08:00;5.8;60
77700;DHT22;66867;42.658;23.320;2023-03-12T02:09:00;5.8;60
77700;DHT22;66867;42.658;23.320;2023-03-12T02:10:00;5.7;60
77700;DHT22;66867;42.658;23.320;2023-03-12T02:11:00;5.7;60
77700;DHT22;66867;42.658;23.320;2023-03-12T02:12:00;5.8;60
77700;DHT22;66867;42.658;23.320;2023-03-12T02:13:00;5.8;60
77700;DHT22;66867;42.658;23.320;2023-03-12T02:14:00;5.8;60
77700;DHT22;66867;42.658;23.320;2023-03-12T02:15:00;5.7;60
77700;DHT22;66867;42.658;23.320;2023-03-12T02:16:00;5.5;60
77700;DHT22;66867;42.658;23.320;2023-03-12T02:17:00;5.5;60
77700;DHT22;66867;42.658;23.320;2023-03-12T02:18:02;5.4;60
77700;DHT22;66867;42.658;23.320;2023-03-12T02:19:00;5.4;60
77700;DHT22;66867;42.658;23.320;2023-03-12T02:22:00;5.4;60
77700;DHT22;66867;42.658;23.320;2023-03-12T02:25:03;5.5;60
77700;DHT22;66867;42.658;23.320;2023-03-12T02:26:00;5.5;60
77700;DHT22;66867;42.658;23.320;2023-03-12T02:27:00;5.5;60
77700;DHT22;66867;42.658;23.320;2023-03-12T02:28:00;5.6;60
77700;DHT22;66867;42.658;23.320;2023-03-12T02:29:00;5.6;60
77700;DHT22;66867;42.658;23.320;2023-03-12T02:30:00;5.6;60
77700;DHT22;66867;42.658;23.320;2023-03-12T02:31:01;5.6;60
77700;DHT22;66867;42.658;23.320;2023-03-12T02:32:00;5.6;60
77700;DHT22;66867;42.658;23.320;2023-03-12T02:33:01;5.6;60
77700;DHT22;66867;42.658;23.320;2023-03-12T02:34:00;5.7;60
77700;DHT22;66867;42.658;23.320;2023-03-12T02:35:00;5.7;60
77700;DHT22;66867;42.658;23.320;2023-03-12T02:36:00;5.7;60
77700;DHT22;66867;42.658;23.320;2023-03-12T02:37:00;5.6;59
77700;DHT22;66867;42.658;23.320;2023-03-12T02:38:00;5.6;60
77700;DHT22;66867;42.658;23.320;2023-03-12T02:39:00;5.6;60
77700;DHT22;66867;42.658;23.320;2023-03-12T02:40:03;5.6;60
77700;DHT22;66867;42.658;23.320;2023-03-12T02:41:01;5.6;60
77700;DHT22;66867;42.658;23.320;2023-03-12T02:42:00;5.6;60
77700;DHT22;66867;42.658;23.320;2023-03-12T02:43:00;5.7;60
77700;DHT22;66867;42.658;23.320;2023-03-12T02:45:00;5.5;60
77700;DHT22;66867;42.658;23.320;2023-03-12T02:46:00;5.5;60
77700;DHT22;66867;42.658;23.320;2023-03-12T02:47:00;5.5;60
77700;DHT22;66867;42.658;23.320;2023-03-12T02:48:00;5.5;60
77700;DHT22;66867;42.658;23.320;2023-03-12T02:49:00;5.6;60
77700;DHT22;66867;42.658;23.320;2023-03-12T02:50:00;5.6;60
77700;DHT22;66867;42.658;23.320;2023-03-12T02:51:00;5.6;60
77700;DHT22;66867;42.658;23.320;2023-03-12T02:52:00;5.5;60
77700;DHT22;66867;42.658;23.320;2023-03-12T02:53:00;5.5;61
77700;DHT22;66867;42.658;23.320;2023-03-12T02:54:00;5.3;61
77700;DHT22;66867;42.658;23.320;2023-03-12T02:55:00;5.3;61
77700;DHT22;66867;42.658;23.320;2023-03-12T02:56:00;5.3;61
77700;DHT22;66867;42.658;23.320;2023-03-12T02:57:00;5.2;61
77700;DHT22;66867;42.658;23.320;2023-03-12T02:58:00;5.1;62
77700;DHT22;66867;42.658;23.320;2023-03-12T02:59:00;5.2;62
77700;DHT22;66867;42.658;23.320;2023-03-12T03:00:00;5.0;62
77700;DHT22;66867;42.658;23.320;2023-03-12T03:01:00;4.9;62
77700;DHT22;66867;42.658;23.320;2023-03-12T03:02:00;4.9;63
77700;DHT22;66867;42.658;23.320;2023-03-12T03:03:00;4.9;63
77700;DHT22;66867;42.658;23.320;2023-03-12T03:04:00;4.9;63
77700;DHT22;66867;42.658;23.320;2023-03-12T03:05:00;4.8;63
77700;DHT22;66867;42.658;23.320;2023-03-12T03:06:00;4.8;63
77700;DHT22;66867;42.658;23.320;2023-03-12T03:07:00;4.7;64
77700;DHT22;66867;42.658;23.320;2023-03-12T03:08:00;4.8;64
77700;DHT22;66867;42.658;23.320;2023-03-12T03:09:00;4.7;63
77700;DHT22;66867;42.658;23.320;2023-03-12T03:10:00;4.8;63
77700;DHT22;66867;42.658;23.320;2023-03-12T03:11:00;4.7;63
77700;DHT22;66867;42.658;23.320;2023-03-12T03:12:00;4.7;62
77700;DHT22;66867;42.658;23.320;2023-03-12T03:13:00;4.8;62
77700;DHT22;66867;42.658;23.320;2023-03-12T03:14:00;4.8;62
77700;DHT22;66867;42.658;23.320;2023-03-12T03:15:00;4.8;62
77700;DHT22;66867;42.658;23.320;2023-03-12T03:16:00;4.8;62
77700;DHT22;66867;42.658;23.320;2023-03-12T03:17:00;4.7;62
77700;DHT22;66867;42.658;23.320;2023-03-12T03:18:00;4.7;62
77700;DHT22;66867;42.658;23.320;2023-03-12T03:19:00;4.7;62
77700;DHT22;66867;42.658;23.320;2023-03-12T03:20:00;4.6;61
77700;DHT22;66867;42.658;23.320;2023-03-12T03:21:01;4.7;62
77700;DHT22;66867;42.658;23.320;2023-03-12T03:22:00;4.7;61
77700;DHT22;66867;42.658;23.320;2023-03-12T03:23:00;4.6;60
77700;DHT22;66867;42.658;23.320;2023-03-12T03:24:00;4.6;61
77700;DHT22;66867;42.658;23.320;2023-03-12T03:25:00;4.5;60
77700;DHT22;66867;42.658;23.320;2023-03-12T03:26:00;4.6;60
77700;DHT22;66867;42.658;23.320;2023-03-12T03:27:00;4.6;60
77700;DHT22;66867;42.658;23.320;2023-03-12T03:28:00;4.6;60
77700;DHT22;66867;42.658;23.320;2023-03-12T03:29:00;4.7;60
77700;DHT22;66867;42.658;23.320;2023-03-12T03:30:00;4.8;60
77700;DHT22;66867;42.658;23.320;2023-03-12T03:31:00;4.8;60
77700;DHT22;66867;42.658;23.320;2023-03-12T03:32:00;4.8;59
77700;DHT22;66867;42.658;23.320;2023-03-12T03:33:00;4.8;59
77700;DHT22;66867;42.658;23.320;2023-03-12T03:34:00;4.9;59
77700;DHT22;66867;42.658;23.320;2023-03-12T03:35:00;4.8;59
77700;DHT22;66867;42.658;23.320;2023-03-12T03:36:00;4.9;58
77700;DHT22;66867;42.658;23.320;2023-03-12T03:37:00;5.0;59
77700;DHT22;66867;42.658;23.320;2023-03-12T03:38:00;5.0;58
77700;DHT22;66867;42.658;23.320;2023-03-12T03:39:00;5.1;58
77700;DHT22;66867;42.658;23.320;2023-03-12T03:40:00;5.0;58
77700;DHT22;66867;42.658;23.320;2023-03-12T03:41:00;4.9;58
77700;DHT22;66867;42.658;23.320;2023-03-12T03:42:00;4.9;59
77700;DHT22;66867;42.658;23.320;2023-03-12T03:43:00;4.9;59
77700;DHT22;66867;42.658;23.320;2023-03-12T03:44:00;4.7;59
77700;DHT22;66867;42.658;23.320;2023-03-12T03:45:00;4.8;59
77700;DHT22;66867;42.658;23.320;2023-03-12T03:46:01;4.8;60
77700;DHT22;66867;42.658;23.320;2023-03-12T03:47:00;4.8;59
77700;DHT22;66867;42.658;23.320;2023-03-12T03:48:00;4.7;59
77700;DHT22;66867;42.658;23.320;2023-03-12T03:49:00;4.7;59
77700;DHT22;66867;42.658;23.320;2023-03-12T03:50:00;4.8;59
77700;DHT22;66867;42.658;23.320;2023-03-12T03:51:01;4.8;59
77700;DHT22;66867;42.658;23.320;2023-03-12T03:52:00;4.7;59
77700;DHT22;66867;42.658;23.320;2023-03-12T03:53:00;4.7;59
77700;DHT22;66867;42.658;23.320;2023-03-12T03:54:00;4.8;59
77700;DHT22;66867;42.658;23.320;2023-03-12T03:55:00;4.8;59
77700;DHT22;66867;42.658;23.320;2023-03-12T03:56:04;4.7;59
77700;DHT22;66867;42.658;23.320;2023-03-12T03:57:00;4.7;59
77700;DHT22;66867;42.658;23.320;2023-03-12T03:58:00;4.6;59
77700;DHT22;66867;42.658;23.320;2023-03-12T03:59:00;4.5;59
77700;DHT22;66867;42.658;23.320;2023-03-12T04:00:00;4.6;59
77700;DHT22;66867;42.658;23.320;2023-03-12T04:01:00;4.6;59
77700;DHT22;66867;42.658;23.320;2023-03-12T04:02:00;4.7;59
77700;DHT22;66867;42.658;23.320;2023-03-12T04:03:00;4.6;59
77700;DHT22;66867;42.658;23.320;2023-03-12T04:04:00;4.5;59
77700;DHT22;66867;42.658;23.320;2023-03-12T04:05:00;4.6;59
77700;DHT22;66867;42.658;23.320;2023-03-12T04:06:01;4.4;59
77700;DHT22;66867;42.658;23.320;2023-03-12T04:07:00;4.5;59
77700;DHT22;66867;42.658;23.320;2023-03-12T04:08:00;4.5;59
77700;DHT22;66867;42.658;23.320;2023-03-12T04:09:00;4.4;59
77700;DHT22;66867;42.658;23.320;2023-03-12T04:10:00;4.4;59
77700;DHT22;66867;42.658;23.320;2023-03-12T04:11:08;4.5;59
77700;DHT22;66867;42.658;23.320;2023-03-12T04:12:00;4.5;59
77700;DHT22;66867;42.658;23.320;2023-03-12T04:13:00;4.5;59
77700;DHT22;66867;42.658;23.320;2023-03-12T04:14:00;4.5;58
77700;DHT22;66867;42.658;23.320;2023-03-12T04:15:00;4.4;58
77700;DHT22;66867;42.658;23.320;2023-03-12T04:16:00;4.4;58
77700;DHT22;66867;42.658;23.320;2023-03-12T04:17:00;4.4;58
77700;DHT22;66867;42.658;23.320;2023-03-12T04:18:00;4.5;58
77700;DHT22;66867;42.658;23.320;2023-03-12T04:19:00;4.4;58
77700;DHT22;66867;42.658;23.320;2023-03-12T04:20:00;4.4;58
77700;DHT22;66867;42.658;23.320;2023-03-12T04:21:00;4.4;58
77700;DHT22;66867;42.658;23.320;2023-03-12T04:22:00;4.4;58
77700;DHT22;66867;42.658;23.320;2023-03-12T04:23:00;4.4;58
77700;DHT22;66867;42.658;23.320;2023-03-12T04:24:00;4.5;58
77700;DHT22;66867;42.658;23.320;2023-03-12T04:25:00;4.5;58
77700;DHT22;66867;42.658;23.320;2023-03-12T04:26:00;4.3;58
77700;DHT22;66867;42.658;23.320;2023-03-12T04:27:00;4.3;58
77700;DHT22;66867;42.658;23.320;2023-03-12T04:28:00;4.3;59
77700;DHT22;66867;42.658;23.320;2023-03-12T04:29:00;4.3;58
77700;DHT22;66867;42.658;23.320;2023-03-12T04:30:00;4.4;58
77700;DHT22;66867;42.658;23.320;2023-03-12T04:31:01;4.2;59
77700;DHT22;66867;42.658;23.320;2023-03-12T04:32:00;4.3;58
77700;DHT22;66867;42.658;23.320;2023-03-12T04:33:00;4.3;58
77700;DHT22;66867;42.658;23.320;2023-03-12T04:34:00;4.3;59
77700;DHT22;66867;42.658;23.320;2023-03-12T04:35:00;4.3;59
77700;DHT22;66867;42.658;23.320;2023-03-12T04:36:00;4.2;58
77700;DHT22;66867;42.658;23.320;2023-03-12T04:37:00;4.2;59
77700;DHT22;66867;42.658;23.320;2023-03-12T04:38:00;4.3;59
77700;DHT22;66867;42.658;23.320;2023-03-12T04:39:00;4.3;58
77700;DHT22;66867;42.658;23.320;2023-03-12T04:40:00;4.3;58
77700;DHT22;66867;42.658;23.320;2023-03-12T04:41:01;4.3;58
77700;DHT22;66867;42.658;23.320;2023-03-12T04:42:00;4.3;58
77700;DHT22;66867;42.658;23.320;2023-03-12T04:43:00;4.4;58
77700;DHT22;66867;42.658;23.320;2023-03-12T04:44:00;4.4;58
77700;DHT22;66867;42.658;23.320;2023-03-12T04:45:00;4.4;58
77700;DHT22;66867;42.658;23.320;2023-03-12T04:46:00;4.4;58
77700;DHT22;66867;42.658;23.320;2023-03-12T04:47:00;4.3;59
77700;DHT22;66867;42.658;23.320;2023-03-12T04:48:00;4.3;59
77700;DHT22;66867;42.658;23.320;2023-03-12T04:49:00;4.3;59
77700;DHT22;66867;42.658;23.320;2023-03-12T04:50:00;4.3;59
77700;DHT22;66867;42.658;23.320;2023-03-12T04:51:00;4.3;60
77700;DHT22;66867;42.658;23.320;2023-03-12T04:52:00;4.3;60
77700;DHT22;66867;42.658;23.320;2023-03-12T04:53:00;4.2;60
77700;DHT22;66867;42.658;23.320;2023-03-12T04:54:00;4.3;60
77700;DHT22;66867;42.658;23.320;2023-03-12T04:55:00;4.3;60
77700;DHT22;66867;42.658;23.320;2023-03-12T04:56:00;4.2;59
77700;DHT22;66867;42.658;23.320;2023-03-12T04:57:00;4.3;59
77700;DHT22;66867;42.658;23.320;2023-03-12T04:58:00;4.4;59
77700;DHT22;66867;42.658;23.320;2023-03-12T04:59:00;4.4;59
77700;DHT22;66867;42.658;23.320;2023-03-12T05:00:00;4.4;59
77700;DHT22;66867;42.658;23.320;2023-03-12T05:01:00;4.5;58
77700;DHT22;66867;42.658;23.320;2023-03-12T05:02:00;4.3;58
77700;DHT22;66867;42.658;23.320;2023-03-12T05:03:00;4.4;58
77700;DHT22;66867;42.658;23.320;2023-03-12T05:04:00;4.4;58
77700;DHT22;66867;42.658;23.320;2023-03-12T05:05:00;4.5;58
77700;DHT22;66867;42.658;23.320;2023-03-12T05:06:00;4.5;58
77700;DHT22;66867;42.658;23.320;2023-03-12T05:07:00;4.6;58
77700;DHT22;66867;42.658;23.320;2023-03-12T05:08:00;4.6;57
77700;DHT22;66867;42.658;23.320;2023-03-12T05:09:00;4.7;57
77700;DHT22;66867;42.658;23.320;2023-03-12T05:10:00;4.7;57
77700;DHT22;66867;42.658;23.320;2023-03-12T05:11:00;4.8;57
77700;DHT22;66867;42.658;23.320;2023-03-12T05:12:00;4.8;57
77700;DHT22;66867;42.658;23.320;2023-03-12T05:13:00;4.8;57
77700;DHT22;66867;42.658;23.320;2023-03-12T05:14:00;4.9;58
77700;DHT22;66867;42.658;23.320;2023-03-12T05:15:00;4.9;58
77700;DHT22;66867;42.658;23.320;2023-03-12T05:16:00;5.0;58
77700;DHT22;66867;42.658;23.320;2023-03-12T05:17:00;5.0;59
77700;DHT22;66867;42.658;23.320;2023-03-12T05:18:00;5.0;58
77700;DHT22;66867;42.658;23.320;2023-03-12T05:19:00;5.0;59
77700;DHT22;66867;42.658;23.320;2023-03-12T05:20:00;5.0;58
77700;DHT22;66867;42.658;23.320;2023-03-12T05:21:05;5.0;58
77700;DHT22;66867;42.658;23.320;2023-03-12T05:22:00;5.0;58
77700;DHT22;66867;42.658;23.320;2023-03-12T05:23:00;5.0;58
77700;DHT22;66867;42.658;23.320;2023-03-12T05:24:00;5.0;57
77700;DHT22;66867;42.658;23.320;2023-03-12T05:25:00;5.0;58
77700;DHT22;66867;42.658;23.320;2023-03-12T05:26:00;5.1;58
77700;DHT22;66867;42.658;23.320;2023-03-12T05:27:00;5.1;58
77700;DHT22;66867;42.658;23.320;2023-03-12T05:28:00;5.2;57
77700;DHT22;66867;42.658;23.320;2023-03-12T05:29:00;5.2;57
77700;DHT22;66867;42.658;23.320;2023-03-12T05:30:00;5.2;56
77700;DHT22;66867;42.658;23.320;2023-03-12T05:31:00;5.2;56
77700;DHT22;66867;42.658;23.320;2023-03-12T05:32:00;5.2;56
77700;DHT22;66867;42.658;23.320;2023-03-12T05:33:00;5.2;56
77700;DHT22;66867;42.658;23.320;2023-03-12T05:34:01;5.2;56
77700;DHT22;66867;42.658;23.320;2023-03-12T05:35:00;5.1;56
77700;DHT22;66867;42.658;23.320;2023-03-12T05:36:00;5.1;57
77700;DHT22;66867;42.658;23.320;2023-03-12T05:37:00;5.1;57
77700;DHT22;66867;42.658;23.320;2023-03-12T05:38:00;5.1;58
77700;DHT22;66867;42.658;23.320;2023-03-12T05:39:00;5.0;58
77700;DHT22;66867;42.658;23.320;2023-03-12T05:40:00;5.2;57
77700;DHT22;66867;42.658;23.320;2023-03-12T05:41:00;5.0;57
77700;DHT22;66867;42.658;23.320;2023-03-12T05:42:00;5.0;58
77700;DHT22;66867;42.658;23.320;2023-03-12T05:43:00;5.1;58
77700;DHT22;66867;42.658;23.320;2023-03-12T05:44:00;5.1;58
77700;DHT22;66867;42.658;23.320;2023-03-12T05:45:00;5.2;58
77700;DHT22;66867;42.658;23.320;2023-03-12T05:46:01;5.2;58
77700;DHT22;66867;42.658;23.320;2023-03-12T05:47:00;5.4;58
77700;DHT22;66867;42.658;23.320;2023-03-12T05:48:00;5.4;57
77700;DHT22;66867;42.658;23.320;2023-03-12T05:49:00;5.3;57
77700;DHT22;66867;42.658;23.320;2023-03-12T05:50:00;5.4;56
77700;DHT22;66867;42.658;23.320;2023-03-12T05:51:00;5.4;57
77700;DHT22;66867;42.658;23.320;2023-03-12T05:52:00;5.6;57
77700;DHT22;66867;42.658;23.320;2023-03-12T05:53:00;5.7;56
77700;DHT22;66867;42.658;23.320;2023-03-12T05:54:00;5.7;56
77700;DHT22;66867;42.658;23.320;2023-03-12T05:55:00;5.6;56
77700;DHT22;66867;42.658;23.320;2023-03-12T05:56:02;5.6;56
77700;DHT22;66867;42.658;23.320;2023-03-12T05:57:00;5.6;56
77700;DHT22;66867;42.658;23.320;2023-03-12T05:58:00;5.6;57
77700;DHT22;66867;42.658;23.320;2023-03-12T05:59:00;5.8;56
77700;DHT22;66867;42.658;23.320;2023-03-12T06:00:00;5.8;56
77700;DHT22;66867;42.658;23.320;2023-03-12T06:01:00;5.8;56
77700;DHT22;66867;42.658;23.320;2023-03-12T06:02:00;6.0;56
77700;DHT22;66867;42.658;23.320;2023-03-12T06:03:00;6.1;56
77700;DHT22;66867;42.658;23.320;2023-03-12T06:04:00;6.1;56
77700;DHT22;66867;42.658;23.320;2023-03-12T06:05:00;6.1;56
77700;DHT22;66867;42.658;23.320;2023-03-12T06:06:00;6.1;56
77700;DHT22;66867;42.658;23.320;2023-03-12T06:07:00;6.2;56
77700;DHT22;66867;42.658;23.320;2023-03-12T06:08:00;6.3;56
77700;DHT22;66867;42.658;23.320;2023-03-12T06:09:00;6.3;55
77700;DHT22;66867;42.658;23.320;2023-03-12T06:10:00;6.4;55
77700;DHT22;66867;42.658;23.320;2023-03-12T06:11:00;6.3;55
77700;DHT22;66867;42.658;23.320;2023-03-12T06:12:00;6.3;55
77700;DHT22;66867;42.658;23.320;2023-03-12T06:13:00;6.2;55
77700;DHT22;66867;42.658;23.320;2023-03-12T06:14:00;6.3;56
77700;DHT22;66867;42.658;23.320;2023-03-12T06:15:00;6.3;56
77700;DHT22;66867;42.658;23.320;2023-03-12T06:16:02;6.4;57
77700;DHT22;66867;42.658;23.320;2023-03-12T06:17:00;6.4;58
77700;DHT22;66867;42.658;23.320;2023-03-12T06:18:00;6.5;58
77700;DHT22;66867;42.658;23.320;2023-03-12T06:19:00;6.5;57
77700;DHT22;66867;42.658;23.320;2023-03-12T06:20:00;6.5;58
77700;DHT22;66867;42.658;23.320;2023-03-12T06:21:16;6.6;58
77700;DHT22;66867;42.658;23.320;2023-03-12T06:22:00;6.7;58
77700;DHT22;66867;42.658;23.320;2023-03-12T06:23:00;6.7;58
77700;DHT22;66867;42.658;23.320;2023-03-12T06:24:00;6.8;58
77700;DHT22;66867;42.658;23.320;2023-03-12T06:26:00;6.9;57
77700;DHT22;66867;42.658;23.320;2023-03-12T06:27:00;6.9;58
77700;DHT22;66867;42.658;23.320;2023-03-12T06:28:00;6.9;58
77700;DHT22;66867;42.658;23.320;2023-03-12T06:29:00;7.0;57
77700;DHT22;66867;42.658;23.320;2023-03-12T06:30:00;7.0;58
77700;DHT22;66867;42.658;23.320;2023-03-12T06:31:00;6.8;58
77700;DHT22;66867;42.658;23.320;2023-03-12T06:32:00;6.9;58
77700;DHT22;66867;42.658;23.320;2023-03-12T06:33:00;6.8;58
77700;DHT22;66867;42.658;23.320;2023-03-12T06:34:00;7.0;58
77700;DHT22;66867;42.658;23.320;2023-03-12T06:35:00;7.1;58
77700;DHT22;66867;42.658;23.320;2023-03-12T06:36:00;7.1;58
77700;DHT22;66867;42.658;23.320;2023-03-12T06:37:00;7.1;58
77700;DHT22;66867;42.658;23.320;2023-03-12T06:38:00;7.3;58
77700;DHT22;66867;42.658;23.320;2023-03-12T06:39:00;7.2;58
77700;DHT22;66867;42.658;23.320;2023-03-12T06:40:00;7.3;58
77700;DHT22;66867;42.658;23.320;2023-03-12T06:41:01;7.3;58
77700;DHT22;66867;42.658;23.320;2023-03-12T06:42:00;7.3;57
77700;DHT22;66867;42.658;23.320;2023-03-12T06:43:00;7.3;57
77700;DHT22;66867;42.658;23.320;2023-03-12T06:44:00;7.3;58
77700;DHT22;66867;42.658;23.320;2023-03-12T06:45:00;7.4;58
77700;DHT22;66867;42.658;23.320;2023-03-12T06:46:00;7.3;58
77700;DHT22;66867;42.658;23.320;2023-03-12T06:47:00;7.2;58
77700;DHT22;66867;42.658;23.320;2023-03-12T06:48:00;7.2;59
77700;DHT22;66867;42.658;23.320;2023-03-12T06:49:00;7.2;59
77700;DHT22;66867;42.658;23.320;2023-03-12T06:50:00;7.2;58
77700;DHT22;66867;42.658;23.320;2023-03-12T06:51:00;7.2;58
77700;DHT22;66867;42.658;23.320;2023-03-12T06:52:00;7.4;58